Lammy — PBRE — position and weather

sailwx.info

Track history (hours):
 
Tides and Currents Weather Stations Pressure Air Temp Water Temp Dewpoint Dewpoint Depression Visibility Wind Speed Wind Dir Waves Ship Positions

Lammy

Last reported at 2015-Sep-03 06:33 UTC. Time now 2015-Sep-03 06:52 UTC.
Position N 53°45' W 000°16'.

Length 95 m; draft 5.6 m.

Type: Cargo ship. MMSI: 245391000.

Date/timePositionNaut miles runAvg speedWind from/ knotsBaromVisibWave heightAir tempDewpointWater temp
2015-Sep-03 06:33N 53°45' W 000°16'0 0.0
2015-Sep-03 05:34N 53°45' W 000°16'0 0.0
2015-Sep-03 04:34N 53°45' W 000°16'0 0.0
2015-Sep-03 03:33N 53°45' W 000°16'0 0.0
2015-Sep-03 02:34N 53°45' W 000°16'0 0.0
2015-Sep-03 01:34N 53°45' W 000°16'0 0.0
2015-Sep-03 00:33N 53°45' W 000°16'0 0.0
2015-Sep-02 23:34N 53°45' W 000°16'0 0.0
2015-Sep-02 22:34N 53°45' W 000°16'0 0.0
2015-Sep-02 21:34N 53°45' W 000°16'0 0.4
2015-Sep-02 20:33N 53°45' W 000°16'10 9.7
2015-Sep-02 19:34N 53°37' W 000°06'1212.0
2015-Sep-02 18:33N 53°33' E 000°13'44010.7
2015-Sep-01 01:26N 57°46' E 010°51'1012.0
2015-Sep-01 00:33N 57°42' E 011°09'1111.4
2015-Aug-31 23:33N 57°37' E 011°29'7 6.5
2015-Aug-31 22:31N 57°36' E 011°41'0 0.0
2015-Aug-31 21:31N 57°36' E 011°41'0 0.0
2015-Aug-31 20:31N 57°36' E 011°41'2 1.9
2015-Aug-31 19:33N 57°35' E 011°39'1110.8
2015-Aug-31 18:33N 57°24' E 011°43'1211.6
2015-Aug-31 17:30N 57°13' E 011°53'1112.1
2015-Aug-31 16:33N 57°02' E 012°00'1212.3
2015-Aug-31 15:33N 56°51' E 012°06'1312.5
2015-Aug-31 14:33N 56°39' E 012°13'1312.5
2015-Aug-31 13:33N 56°26' E 012°19'1211.9
2015-Aug-31 12:33N 56°15' E 012°26'1212.0
2015-Aug-31 11:34N 56°05' E 012°37'1111.5
2015-Aug-31 10:33N 55°54' E 012°44'1211.8
2015-Aug-31 09:33N 55°43' E 012°41'1110.7
2015-Aug-31 08:34N 55°32' E 012°42'1211.8
2015-Aug-31 07:33N 55°20' E 012°40'1211.8
2015-Aug-31 06:34N 55°16' E 012°59'1312.4
2015-Aug-31 05:33N 55°15' E 013°21'1212.2
2015-Aug-31 04:33N 55°14' E 013°42'1212.4
2015-Aug-31 03:34N 55°14' E 014°04'1111.2
2015-Aug-31 02:34N 55°18' E 014°22'1212.2
2015-Aug-31 01:34N 55°27' E 014°38'1212.2
2015-Aug-31 00:33N 55°33' E 014°56'1212.3
2015-Aug-30 23:33N 55°39' E 015°15'1212.2
2015-Aug-30 22:34N 55°45' E 015°34'1212.3
2015-Aug-30 21:34N 55°51' E 015°53'1212.4
2015-Aug-30 20:34N 55°57' E 016°12'1211.8
2015-Aug-30 19:34N 56°04' E 016°30'1111.2
2015-Aug-30 18:33N 56°11' E 016°45'4812.0
2015-Aug-30 14:34N 56°55' E 017°18'1212.1
2015-Aug-30 13:33N 57°07' E 017°26'1211.9
2015-Aug-30 12:34N 57°18' E 017°35'  
2015-Aug-25 05:10N 58°37' E 019°07'711.8
2015-Aug-25 04:33N 58°31' E 019°00'1212.0
2015-Aug-25 03:33N 58°21' E 018°49'1211.9
2015-Aug-25 02:33N 58°10' E 018°37'1212.2
2015-Aug-25 01:34N 58°00' E 018°26'1512.2
2015-Aug-25 00:19N 57°47' E 018°11'912.1
2015-Aug-24 23:33N 57°39' E 018°02'1212.1
2015-Aug-24 22:33N 57°29' E 017°51'1212.4
2015-Aug-24 21:34N 57°17' E 017°41'1212.4
2015-Aug-24 20:33N 57°06' E 017°32'1212.0
2015-Aug-24 19:33N 56°55' E 017°24'1212.1
2015-Aug-24 18:33N 56°44' E 017°15'1212.1
2015-Aug-24 17:33N 56°33' E 017°07'1212.0
2015-Aug-24 16:34N 56°21' E 016°59'1212.0
2015-Aug-24 15:33N 56°10' E 016°51'1111.4
2015-Aug-24 14:33N 56°02' E 016°38'1211.6
2015-Aug-24 13:33N 55°56' E 016°20'1211.6
2015-Aug-24 12:33N 55°50' E 016°02'1211.6
2015-Aug-24 11:34N 55°44' E 015°45'1212.0
2015-Aug-24 10:34N 55°38' E 015°26'1212.0
2015-Aug-24 09:33N 55°32' E 015°08'1211.7
2015-Aug-24 08:34N 55°26' E 014°51'1211.7
2015-Aug-24 07:34N 55°19' E 014°33'1211.6
2015-Aug-24 06:34N 55°11' E 014°18'  
Track history (hours):
 
Tides and Currents Weather Stations Pressure Air Temp Water Temp Dewpoint Dewpoint Depression Visibility Wind Speed Wind Dir Waves Ship Positions

Lammy

Last reported at 2015-Sep-03 06:33 UTC. Time now 2015-Sep-03 06:52 UTC.
Position N 53°45' W 000°16'.

Length 95 m; draft 5.6 m.

Type: Cargo ship. MMSI: 245391000.

Date/timePositionNaut miles runAvg speedWind from/ knotsBaromVisibWave heightAir tempDewpointWater temp
2015-Sep-03 06:33N 53°45' W 000°16'0 0.0
2015-Sep-03 05:34N 53°45' W 000°16'0 0.0
2015-Sep-03 04:34N 53°45' W 000°16'0 0.0
2015-Sep-03 03:33N 53°45' W 000°16'0 0.0
2015-Sep-03 02:34N 53°45' W 000°16'0 0.0
2015-Sep-03 01:34N 53°45' W 000°16'0 0.0
2015-Sep-03 00:33N 53°45' W 000°16'0 0.0
2015-Sep-02 23:34N 53°45' W 000°16'0 0.0
2015-Sep-02 22:34N 53°45' W 000°16'0 0.0
2015-Sep-02 21:34N 53°45' W 000°16'0 0.4
2015-Sep-02 20:33N 53°45' W 000°16'10 9.7
2015-Sep-02 19:34N 53°37' W 000°06'1212.0
2015-Sep-02 18:33N 53°33' E 000°13'44010.7
2015-Sep-01 01:26N 57°46' E 010°51'1012.0
2015-Sep-01 00:33N 57°42' E 011°09'1111.4
2015-Aug-31 23:33N 57°37' E 011°29'7 6.5
2015-Aug-31 22:31N 57°36' E 011°41'0 0.0
2015-Aug-31 21:31N 57°36' E 011°41'0 0.0
2015-Aug-31 20:31N 57°36' E 011°41'2 1.9
2015-Aug-31 19:33N 57°35' E 011°39'1110.8
2015-Aug-31 18:33N 57°24' E 011°43'1211.6
2015-Aug-31 17:30N 57°13' E 011°53'1112.1
2015-Aug-31 16:33N 57°02' E 012°00'1212.3
2015-Aug-31 15:33N 56°51' E 012°06'1312.5
2015-Aug-31 14:33N 56°39' E 012°13'1312.5
2015-Aug-31 13:33N 56°26' E 012°19'1211.9
2015-Aug-31 12:33N 56°15' E 012°26'1212.0
2015-Aug-31 11:34N 56°05' E 012°37'1111.5
2015-Aug-31 10:33N 55°54' E 012°44'1211.8
2015-Aug-31 09:33N 55°43' E 012°41'1110.7
2015-Aug-31 08:34N 55°32' E 012°42'1211.8
2015-Aug-31 07:33N 55°20' E 012°40'1211.8
2015-Aug-31 06:34N 55°16' E 012°59'1312.4
2015-Aug-31 05:33N 55°15' E 013°21'1212.2
2015-Aug-31 04:33N 55°14' E 013°42'1212.4
2015-Aug-31 03:34N 55°14' E 014°04'1111.2
2015-Aug-31 02:34N 55°18' E 014°22'1212.2
2015-Aug-31 01:34N 55°27' E 014°38'1212.2
2015-Aug-31 00:33N 55°33' E 014°56'1212.3
2015-Aug-30 23:33N 55°39' E 015°15'1212.2
2015-Aug-30 22:34N 55°45' E 015°34'1212.3
2015-Aug-30 21:34N 55°51' E 015°53'1212.4
2015-Aug-30 20:34N 55°57' E 016°12'1211.8
2015-Aug-30 19:34N 56°04' E 016°30'1111.2
2015-Aug-30 18:33N 56°11' E 016°45'4812.0
2015-Aug-30 14:34N 56°55' E 017°18'1212.1
2015-Aug-30 13:33N 57°07' E 017°26'1211.9
2015-Aug-30 12:34N 57°18' E 017°35'  
2015-Aug-25 05:10N 58°37' E 019°07'711.8
2015-Aug-25 04:33N 58°31' E 019°00'1212.0
2015-Aug-25 03:33N 58°21' E 018°49'1211.9
2015-Aug-25 02:33N 58°10' E 018°37'1212.2
2015-Aug-25 01:34N 58°00' E 018°26'1512.2
2015-Aug-25 00:19N 57°47' E 018°11'912.1
2015-Aug-24 23:33N 57°39' E 018°02'1212.1
2015-Aug-24 22:33N 57°29' E 017°51'1212.4
2015-Aug-24 21:34N 57°17' E 017°41'1212.4
2015-Aug-24 20:33N 57°06' E 017°32'1212.0
2015-Aug-24 19:33N 56°55' E 017°24'1212.1
2015-Aug-24 18:33N 56°44' E 017°15'1212.1
2015-Aug-24 17:33N 56°33' E 017°07'1212.0
2015-Aug-24 16:34N 56°21' E 016°59'1212.0
2015-Aug-24 15:33N 56°10' E 016°51'1111.4
2015-Aug-24 14:33N 56°02' E 016°38'1211.6
2015-Aug-24 13:33N 55°56' E 016°20'1211.6
2015-Aug-24 12:33N 55°50' E 016°02'1211.6
2015-Aug-24 11:34N 55°44' E 015°45'1212.0
2015-Aug-24 10:34N 55°38' E 015°26'1212.0
2015-Aug-24 09:33N 55°32' E 015°08'1211.7
2015-Aug-24 08:34N 55°26' E 014°51'1211.7
2015-Aug-24 07:34N 55°19' E 014°33'1211.6
2015-Aug-24 06:34N 55°11' E 014°18'  

Dump ship's entire track history